sensor_id;sensor_type;location;lat;lon;timestamp;P1;durP1;ratioP1;P2;durP2;ratioP2
21266;SDS011;10791;53.108;18.326;2023-08-17T00:03:28;5.18;;;1.33;;
21266;SDS011;10791;53.108;18.326;2023-08-17T00:08:31;2.75;;;0.93;;
21266;SDS011;10791;53.108;18.326;2023-08-17T00:13:35;4.80;;;1.17;;
21266;SDS011;10791;53.108;18.326;2023-08-17T00:18:38;1.52;;;0.75;;
21266;SDS011;10791;53.108;18.326;2023-08-17T00:23:41;4.07;;;1.13;;
21266;SDS011;10791;53.108;18.326;2023-08-17T00:28:44;1.23;;;0.63;;
21266;SDS011;10791;53.108;18.326;2023-08-17T00:33:47;2.55;;;1.05;;
21266;SDS011;10791;53.108;18.326;2023-08-17T00:38:51;1.85;;;0.90;;
21266;SDS011;10791;53.108;18.326;2023-08-17T00:43:54;7.70;;;1.50;;
21266;SDS011;10791;53.108;18.326;2023-08-17T00:48:58;3.65;;;0.95;;
21266;SDS011;10791;53.108;18.326;2023-08-17T00:54:02;5.65;;;1.20;;
21266;SDS011;10791;53.108;18.326;2023-08-17T00:59:06;2.88;;;1.08;;
21266;SDS011;10791;53.108;18.326;2023-08-17T01:04:09;4.35;;;1.65;;
21266;SDS011;10791;53.108;18.326;2023-08-17T01:09:12;3.63;;;1.05;;
21266;SDS011;10791;53.108;18.326;2023-08-17T01:14:19;3.72;;;1.17;;
21266;SDS011;10791;53.108;18.326;2023-08-17T01:19:28;2.78;;;1.35;;
21266;SDS011;10791;53.108;18.326;2023-08-17T01:24:32;2.67;;;1.48;;
21266;SDS011;10791;53.108;18.326;2023-08-17T01:29:35;4.55;;;1.20;;
21266;SDS011;10791;53.108;18.326;2023-08-17T01:34:49;3.13;;;1.55;;
21266;SDS011;10791;53.108;18.326;2023-08-17T01:39:57;1.70;;;1.08;;
21266;SDS011;10791;53.108;18.326;2023-08-17T01:45:01;5.13;;;1.30;;
21266;SDS011;10791;53.108;18.326;2023-08-17T01:50:05;4.40;;;2.40;;
21266;SDS011;10791;53.108;18.326;2023-08-17T01:55:08;4.25;;;1.23;;
21266;SDS011;10791;53.108;18.326;2023-08-17T02:00:12;9.35;;;1.80;;
21266;SDS011;10791;53.108;18.326;2023-08-17T02:05:15;4.15;;;1.50;;
21266;SDS011;10791;53.108;18.326;2023-08-17T02:10:18;1.92;;;1.42;;
21266;SDS011;10791;53.108;18.326;2023-08-17T02:15:22;3.00;;;1.60;;
21266;SDS011;10791;53.108;18.326;2023-08-17T02:20:25;3.28;;;1.52;;
21266;SDS011;10791;53.108;18.326;2023-08-17T02:25:28;3.10;;;1.20;;
21266;SDS011;10791;53.108;18.326;2023-08-17T02:30:37;3.00;;;1.70;;
21266;SDS011;10791;53.108;18.326;2023-08-17T02:35:41;3.65;;;1.05;;
21266;SDS011;10791;53.108;18.326;2023-08-17T02:40:44;4.45;;;1.40;;
21266;SDS011;10791;53.108;18.326;2023-08-17T02:45:49;4.85;;;1.40;;
21266;SDS011;10791;53.108;18.326;2023-08-17T02:50:52;3.38;;;1.40;;
21266;SDS011;10791;53.108;18.326;2023-08-17T02:55:55;3.70;;;1.35;;
21266;SDS011;10791;53.108;18.326;2023-08-17T03:01:02;3.28;;;1.27;;
21266;SDS011;10791;53.108;18.326;2023-08-17T03:06:07;5.30;;;1.60;;
21266;SDS011;10791;53.108;18.326;2023-08-17T03:11:10;6.05;;;1.63;;
21266;SDS011;10791;53.108;18.326;2023-08-17T03:16:14;2.95;;;1.52;;
21266;SDS011;10791;53.108;18.326;2023-08-17T03:21:18;5.07;;;1.23;;
21266;SDS011;10791;53.108;18.326;2023-08-17T03:26:22;4.15;;;1.45;;
21266;SDS011;10791;53.108;18.326;2023-08-17T03:31:25;2.92;;;1.50;;
21266;SDS011;10791;53.108;18.326;2023-08-17T03:36:28;5.43;;;1.50;;
21266;SDS011;10791;53.108;18.326;2023-08-17T03:41:31;3.40;;;1.30;;
21266;SDS011;10791;53.108;18.326;2023-08-17T03:46:34;3.58;;;1.33;;
21266;SDS011;10791;53.108;18.326;2023-08-17T03:51:37;7.18;;;1.42;;
21266;SDS011;10791;53.108;18.326;2023-08-17T03:56:41;4.85;;;1.65;;
21266;SDS011;10791;53.108;18.326;2023-08-17T04:01:44;4.18;;;1.55;;
21266;SDS011;10791;53.108;18.326;2023-08-17T04:06:47;5.40;;;1.33;;
21266;SDS011;10791;53.108;18.326;2023-08-17T04:11:50;3.80;;;1.50;;
21266;SDS011;10791;53.108;18.326;2023-08-17T04:16:53;1.85;;;1.40;;
21266;SDS011;10791;53.108;18.326;2023-08-17T04:21:58;5.75;;;1.40;;
21266;SDS011;10791;53.108;18.326;2023-08-17T04:27:01;5.10;;;1.73;;
21266;SDS011;10791;53.108;18.326;2023-08-17T04:32:04;5.10;;;1.88;;
21266;SDS011;10791;53.108;18.326;2023-08-17T04:37:07;5.03;;;1.70;;
21266;SDS011;10791;53.108;18.326;2023-08-17T04:42:11;2.75;;;1.70;;
21266;SDS011;10791;53.108;18.326;2023-08-17T04:47:15;6.05;;;1.55;;
21266;SDS011;10791;53.108;18.326;2023-08-17T04:52:18;2.63;;;1.23;;
21266;SDS011;10791;53.108;18.326;2023-08-17T04:57:21;6.28;;;2.17;;
21266;SDS011;10791;53.108;18.326;2023-08-17T05:02:24;3.45;;;1.58;;
21266;SDS011;10791;53.108;18.326;2023-08-17T05:07:28;2.90;;;1.45;;
21266;SDS011;10791;53.108;18.326;2023-08-17T05:12:31;4.35;;;1.92;;
21266;SDS011;10791;53.108;18.326;2023-08-17T05:17:34;3.78;;;1.75;;
21266;SDS011;10791;53.108;18.326;2023-08-17T05:22:37;6.82;;;2.83;;
21266;SDS011;10791;53.108;18.326;2023-08-17T05:27:40;5.75;;;1.85;;
21266;SDS011;10791;53.108;18.326;2023-08-17T05:32:43;3.00;;;1.75;;
21266;SDS011;10791;53.108;18.326;2023-08-17T05:37:46;2.83;;;1.67;;
21266;SDS011;10791;53.108;18.326;2023-08-17T05:42:49;3.55;;;1.83;;
21266;SDS011;10791;53.108;18.326;2023-08-17T05:47:52;4.10;;;1.77;;
21266;SDS011;10791;53.108;18.326;2023-08-17T05:52:56;2.45;;;1.75;;
21266;SDS011;10791;53.108;18.326;2023-08-17T05:58:00;3.72;;;1.63;;
21266;SDS011;10791;53.108;18.326;2023-08-17T06:03:04;3.30;;;1.75;;
21266;SDS011;10791;53.108;18.326;2023-08-17T06:08:07;2.95;;;1.58;;
21266;SDS011;10791;53.108;18.326;2023-08-17T06:13:10;3.63;;;1.85;;
21266;SDS011;10791;53.108;18.326;2023-08-17T06:18:14;3.25;;;1.77;;
21266;SDS011;10791;53.108;18.326;2023-08-17T06:23:17;3.92;;;1.48;;
21266;SDS011;10791;53.108;18.326;2023-08-17T06:28:21;4.40;;;1.23;;
21266;SDS011;10791;53.108;18.326;2023-08-17T06:33:24;2.65;;;0.95;;
21266;SDS011;10791;53.108;18.326;2023-08-17T06:38:27;4.53;;;1.10;;
21266;SDS011;10791;53.108;18.326;2023-08-17T06:43:30;4.22;;;1.02;;
21266;SDS011;10791;53.108;18.326;2023-08-17T06:48:34;10.20;;;1.20;;
21266;SDS011;10791;53.108;18.326;2023-08-17T06:53:43;3.10;;;1.15;;
21266;SDS011;10791;53.108;18.326;2023-08-17T06:58:46;2.28;;;1.00;;
21266;SDS011;10791;53.108;18.326;2023-08-17T07:03:49;2.90;;;0.93;;
21266;SDS011;10791;53.108;18.326;2023-08-17T07:08:52;2.47;;;0.93;;
21266;SDS011;10791;53.108;18.326;2023-08-17T07:13:56;1.92;;;0.82;;
21266;SDS011;10791;53.108;18.326;2023-08-17T07:18:59;4.00;;;1.10;;
21266;SDS011;10791;53.108;18.326;2023-08-17T07:24:12;3.33;;;0.95;;
21266;SDS011;10791;53.108;18.326;2023-08-17T07:29:19;3.75;;;0.95;;
21266;SDS011;10791;53.108;18.326;2023-08-17T07:34:22;3.42;;;1.23;;
21266;SDS011;10791;53.108;18.326;2023-08-17T07:39:25;3.83;;;1.27;;
21266;SDS011;10791;53.108;18.326;2023-08-17T07:44:28;2.08;;;1.10;;
21266;SDS011;10791;53.108;18.326;2023-08-17T07:49:33;4.75;;;1.20;;
21266;SDS011;10791;53.108;18.326;2023-08-17T07:54:36;3.47;;;1.23;;
21266;SDS011;10791;53.108;18.326;2023-08-17T07:59:39;4.32;;;1.20;;
21266;SDS011;10791;53.108;18.326;2023-08-17T08:04:42;4.72;;;1.30;;
21266;SDS011;10791;53.108;18.326;2023-08-17T08:09:45;5.13;;;1.05;;
21266;SDS011;10791;53.108;18.326;2023-08-17T08:14:49;2.58;;;1.10;;
21266;SDS011;10791;53.108;18.326;2023-08-17T08:19:53;3.10;;;1.58;;
21266;SDS011;10791;53.108;18.326;2023-08-17T08:24:57;3.05;;;1.08;;
21266;SDS011;10791;53.108;18.326;2023-08-17T08:30:01;3.88;;;1.40;;
21266;SDS011;10791;53.108;18.326;2023-08-17T08:35:04;2.50;;;1.27;;
21266;SDS011;10791;53.108;18.326;2023-08-17T08:40:10;2.83;;;1.05;;
21266;SDS011;10791;53.108;18.326;2023-08-17T08:45:17;2.78;;;1.40;;
21266;SDS011;10791;53.108;18.326;2023-08-17T08:50:20;1.65;;;1.02;;
21266;SDS011;10791;53.108;18.326;2023-08-17T08:55:26;4.32;;;1.30;;
21266;SDS011;10791;53.108;18.326;2023-08-17T09:00:32;3.97;;;1.05;;
21266;SDS011;10791;53.108;18.326;2023-08-17T09:05:36;3.60;;;1.65;;
21266;SDS011;10791;53.108;18.326;2023-08-17T09:10:41;4.47;;;1.40;;
21266;SDS011;10791;53.108;18.326;2023-08-17T09:15:44;2.92;;;1.38;;
21266;SDS011;10791;53.108;18.326;2023-08-17T09:20:47;1.90;;;1.33;;
21266;SDS011;10791;53.108;18.326;2023-08-17T09:25:54;6.07;;;1.92;;
21266;SDS011;10791;53.108;18.326;2023-08-17T09:31:01;1.98;;;1.40;;
21266;SDS011;10791;53.108;18.326;2023-08-17T09:36:09;4.18;;;1.23;;
21266;SDS011;10791;53.108;18.326;2023-08-17T09:41:14;2.53;;;1.35;;
21266;SDS011;10791;53.108;18.326;2023-08-17T09:46:18;35.45;;;5.22;;
21266;SDS011;10791;53.108;18.326;2023-08-17T09:51:23;4.68;;;2.03;;
21266;SDS011;10791;53.108;18.326;2023-08-17T09:56:27;2.70;;;1.50;;
21266;SDS011;10791;53.108;18.326;2023-08-17T10:01:31;6.50;;;1.75;;
21266;SDS011;10791;53.108;18.326;2023-08-17T10:06:35;6.40;;;2.88;;
21266;SDS011;10791;53.108;18.326;2023-08-17T10:11:41;7.97;;;2.38;;
21266;SDS011;10791;53.108;18.326;2023-08-17T10:16:53;5.10;;;2.30;;
21266;SDS011;10791;53.108;18.326;2023-08-17T10:22:06;3.35;;;2.00;;
21266;SDS011;10791;53.108;18.326;2023-08-17T10:27:20;5.47;;;1.70;;
21266;SDS011;10791;53.108;18.326;2023-08-17T10:32:24;4.45;;;2.20;;
21266;SDS011;10791;53.108;18.326;2023-08-17T10:37:28;8.05;;;1.98;;
21266;SDS011;10791;53.108;18.326;2023-08-17T10:42:33;5.13;;;1.85;;
21266;SDS011;10791;53.108;18.326;2023-08-17T10:47:38;4.85;;;2.65;;
21266;SDS011;10791;53.108;18.326;2023-08-17T10:52:41;7.32;;;2.25;;
21266;SDS011;10791;53.108;18.326;2023-08-17T10:57:50;3.53;;;2.58;;
21266;SDS011;10791;53.108;18.326;2023-08-17T11:02:55;7.05;;;2.78;;
21266;SDS011;10791;53.108;18.326;2023-08-17T11:07:58;5.30;;;2.45;;
21266;SDS011;10791;53.108;18.326;2023-08-17T11:13:02;5.47;;;2.20;;
21266;SDS011;10791;53.108;18.326;2023-08-17T11:18:06;3.55;;;2.15;;
21266;SDS011;10791;53.108;18.326;2023-08-17T11:23:11;8.15;;;2.42;;
21266;SDS011;10791;53.108;18.326;2023-08-17T11:28:14;4.15;;;2.17;;
21266;SDS011;10791;53.108;18.326;2023-08-17T11:33:18;5.57;;;2.45;;
21266;SDS011;10791;53.108;18.326;2023-08-17T11:38:21;3.28;;;2.25;;
21266;SDS011;10791;53.108;18.326;2023-08-17T11:43:24;10.20;;;3.47;;
21266;SDS011;10791;53.108;18.326;2023-08-17T11:48:28;5.15;;;3.67;;
21266;SDS011;10791;53.108;18.326;2023-08-17T11:53:38;8.40;;;3.40;;
21266;SDS011;10791;53.108;18.326;2023-08-17T11:58:42;3.92;;;3.08;;
21266;SDS011;10791;53.108;18.326;2023-08-17T12:03:47;5.15;;;3.17;;
21266;SDS011;10791;53.108;18.326;2023-08-17T12:08:51;8.63;;;4.07;;
21266;SDS011;10791;53.108;18.326;2023-08-17T12:13:55;14.38;;;4.00;;
21266;SDS011;10791;53.108;18.326;2023-08-17T12:19:00;5.72;;;3.92;;
21266;SDS011;10791;53.108;18.326;2023-08-17T12:24:06;5.25;;;3.78;;
21266;SDS011;10791;53.108;18.326;2023-08-17T12:29:10;5.03;;;3.60;;
21266;SDS011;10791;53.108;18.326;2023-08-17T12:34:14;4.88;;;3.47;;
21266;SDS011;10791;53.108;18.326;2023-08-17T12:39:16;7.15;;;4.28;;
21266;SDS011;10791;53.108;18.326;2023-08-17T12:44:20;5.25;;;3.65;;
21266;SDS011;10791;53.108;18.326;2023-08-17T12:49:23;7.90;;;3.67;;
21266;SDS011;10791;53.108;18.326;2023-08-17T12:54:27;6.47;;;3.67;;
21266;SDS011;10791;53.108;18.326;2023-08-17T12:59:30;5.43;;;3.22;;
21266;SDS011;10791;53.108;18.326;2023-08-17T13:04:33;3.83;;;3.15;;
21266;SDS011;10791;53.108;18.326;2023-08-17T13:09:36;5.20;;;2.80;;
21266;SDS011;10791;53.108;18.326;2023-08-17T13:14:39;10.43;;;3.75;;
21266;SDS011;10791;53.108;18.326;2023-08-17T13:19:43;7.22;;;3.05;;
21266;SDS011;10791;53.108;18.326;2023-08-17T13:24:46;6.57;;;3.63;;
21266;SDS011;10791;53.108;18.326;2023-08-17T13:29:49;4.95;;;3.13;;
21266;SDS011;10791;53.108;18.326;2023-08-17T13:34:52;9.43;;;3.20;;
21266;SDS011;10791;53.108;18.326;2023-08-17T13:39:56;8.30;;;3.38;;
21266;SDS011;10791;53.108;18.326;2023-08-17T13:45:01;6.10;;;3.35;;
21266;SDS011;10791;53.108;18.326;2023-08-17T13:50:04;4.55;;;2.75;;
21266;SDS011;10791;53.108;18.326;2023-08-17T13:55:08;9.32;;;4.20;;
21266;SDS011;10791;53.108;18.326;2023-08-17T14:00:11;5.10;;;3.17;;
21266;SDS011;10791;53.108;18.326;2023-08-17T14:05:15;5.65;;;3.47;;
21266;SDS011;10791;53.108;18.326;2023-08-17T14:10:20;45.15;;;7.30;;
21266;SDS011;10791;53.108;18.326;2023-08-17T14:15:40;5.80;;;3.35;;
21266;SDS011;10791;53.108;18.326;2023-08-17T14:20:43;3.38;;;2.53;;
21266;SDS011;10791;53.108;18.326;2023-08-17T14:25:47;7.90;;;2.92;;
21266;SDS011;10791;53.108;18.326;2023-08-17T14:30:50;4.85;;;3.58;;
21266;SDS011;10791;53.108;18.326;2023-08-17T14:35:54;4.55;;;3.58;;
21266;SDS011;10791;53.108;18.326;2023-08-17T14:40:57;9.77;;;4.18;;
21266;SDS011;10791;53.108;18.326;2023-08-17T14:46:00;8.07;;;4.18;;
21266;SDS011;10791;53.108;18.326;2023-08-17T14:51:03;11.13;;;5.15;;
21266;SDS011;10791;53.108;18.326;2023-08-17T14:56:07;10.18;;;4.85;;
21266;SDS011;10791;53.108;18.326;2023-08-17T15:01:10;6.43;;;4.03;;
21266;SDS011;10791;53.108;18.326;2023-08-17T15:06:20;8.30;;;4.50;;
21266;SDS011;10791;53.108;18.326;2023-08-17T15:11:36;6.35;;;4.88;;
21266;SDS011;10791;53.108;18.326;2023-08-17T15:16:39;6.60;;;3.20;;
21266;SDS011;10791;53.108;18.326;2023-08-17T15:21:42;4.13;;;2.72;;
21266;SDS011;10791;53.108;18.326;2023-08-17T15:26:45;3.67;;;2.53;;
21266;SDS011;10791;53.108;18.326;2023-08-17T15:31:49;6.18;;;2.72;;
21266;SDS011;10791;53.108;18.326;2023-08-17T15:36:52;4.45;;;2.70;;
21266;SDS011;10791;53.108;18.326;2023-08-17T15:41:55;6.15;;;3.03;;
21266;SDS011;10791;53.108;18.326;2023-08-17T15:46:58;7.32;;;3.05;;
21266;SDS011;10791;53.108;18.326;2023-08-17T15:52:03;7.43;;;3.60;;
21266;SDS011;10791;53.108;18.326;2023-08-17T15:57:08;5.28;;;2.70;;
21266;SDS011;10791;53.108;18.326;2023-08-17T16:02:12;8.50;;;2.92;;
21266;SDS011;10791;53.108;18.326;2023-08-17T16:07:16;4.35;;;2.75;;
21266;SDS011;10791;53.108;18.326;2023-08-17T16:12:19;3.67;;;2.30;;
21266;SDS011;10791;53.108;18.326;2023-08-17T16:17:22;11.15;;;2.85;;
21266;SDS011;10791;53.108;18.326;2023-08-17T16:22:26;4.47;;;2.67;;
21266;SDS011;10791;53.108;18.326;2023-08-17T16:27:29;4.82;;;2.63;;
21266;SDS011;10791;53.108;18.326;2023-08-17T16:32:32;7.05;;;2.78;;
21266;SDS011;10791;53.108;18.326;2023-08-17T16:37:35;7.50;;;2.60;;
21266;SDS011;10791;53.108;18.326;2023-08-17T16:42:42;4.35;;;1.90;;
21266;SDS011;10791;53.108;18.326;2023-08-17T16:47:45;3.40;;;2.20;;
21266;SDS011;10791;53.108;18.326;2023-08-17T16:52:49;2.42;;;1.60;;
21266;SDS011;10791;53.108;18.326;2023-08-17T16:57:53;4.97;;;1.67;;
21266;SDS011;10791;53.108;18.326;2023-08-17T17:02:59;6.05;;;2.20;;
21266;SDS011;10791;53.108;18.326;2023-08-17T17:08:03;4.15;;;2.13;;
21266;SDS011;10791;53.108;18.326;2023-08-17T17:13:07;7.68;;;1.85;;
21266;SDS011;10791;53.108;18.326;2023-08-17T17:18:11;9.45;;;2.10;;
21266;SDS011;10791;53.108;18.326;2023-08-17T17:23:15;3.63;;;1.42;;
21266;SDS011;10791;53.108;18.326;2023-08-17T17:28:19;7.15;;;1.98;;
21266;SDS011;10791;53.108;18.326;2023-08-17T17:33:24;6.22;;;1.75;;
21266;SDS011;10791;53.108;18.326;2023-08-17T17:38:27;7.82;;;2.33;;
21266;SDS011;10791;53.108;18.326;2023-08-17T17:43:31;6.68;;;1.70;;
21266;SDS011;10791;53.108;18.326;2023-08-17T17:48:34;4.72;;;1.70;;
21266;SDS011;10791;53.108;18.326;2023-08-17T17:53:38;4.38;;;1.42;;
21266;SDS011;10791;53.108;18.326;2023-08-17T17:58:42;5.07;;;1.23;;
21266;SDS011;10791;53.108;18.326;2023-08-17T18:03:45;8.23;;;1.50;;
21266;SDS011;10791;53.108;18.326;2023-08-17T18:08:50;1.88;;;1.17;;
21266;SDS011;10791;53.108;18.326;2023-08-17T18:13:53;2.25;;;1.25;;
21266;SDS011;10791;53.108;18.326;2023-08-17T18:18:56;5.53;;;1.25;;
21266;SDS011;10791;53.108;18.326;2023-08-17T18:24:00;3.10;;;1.65;;
21266;SDS011;10791;53.108;18.326;2023-08-17T18:29:03;3.53;;;1.50;;
21266;SDS011;10791;53.108;18.326;2023-08-17T18:34:09;3.58;;;1.40;;
21266;SDS011;10791;53.108;18.326;2023-08-17T18:39:14;4.85;;;1.50;;
21266;SDS011;10791;53.108;18.326;2023-08-17T18:44:18;4.15;;;1.60;;
21266;SDS011;10791;53.108;18.326;2023-08-17T18:49:22;4.45;;;1.75;;
21266;SDS011;10791;53.108;18.326;2023-08-17T18:54:26;3.15;;;1.23;;
21266;SDS011;10791;53.108;18.326;2023-08-17T18:59:30;2.67;;;1.30;;
21266;SDS011;10791;53.108;18.326;2023-08-17T19:04:34;1.95;;;1.30;;
21266;SDS011;10791;53.108;18.326;2023-08-17T19:09:38;5.18;;;1.50;;
21266;SDS011;10791;53.108;18.326;2023-08-17T19:14:42;3.03;;;1.63;;
21266;SDS011;10791;53.108;18.326;2023-08-17T19:19:46;3.58;;;1.33;;
21266;SDS011;10791;53.108;18.326;2023-08-17T19:24:49;2.58;;;1.10;;
21266;SDS011;10791;53.108;18.326;2023-08-17T19:29:55;5.30;;;1.20;;
21266;SDS011;10791;53.108;18.326;2023-08-17T19:35:00;4.00;;;1.90;;
21266;SDS011;10791;53.108;18.326;2023-08-17T19:40:06;2.13;;;1.30;;
21266;SDS011;10791;53.108;18.326;2023-08-17T19:45:12;2.58;;;1.45;;
21266;SDS011;10791;53.108;18.326;2023-08-17T19:50:16;5.20;;;2.20;;
21266;SDS011;10791;53.108;18.326;2023-08-17T19:55:20;7.97;;;2.08;;
21266;SDS011;10791;53.108;18.326;2023-08-17T20:00:24;6.20;;;1.60;;
21266;SDS011;10791;53.108;18.326;2023-08-17T20:05:28;5.47;;;1.70;;
21266;SDS011;10791;53.108;18.326;2023-08-17T20:10:33;3.78;;;1.60;;
21266;SDS011;10791;53.108;18.326;2023-08-17T20:15:37;7.93;;;1.70;;
21266;SDS011;10791;53.108;18.326;2023-08-17T20:20:53;5.25;;;1.30;;
21266;SDS011;10791;53.108;18.326;2023-08-17T20:26:01;3.33;;;1.33;;
21266;SDS011;10791;53.108;18.326;2023-08-17T20:31:05;2.92;;;1.45;;
21266;SDS011;10791;53.108;18.326;2023-08-17T20:36:09;3.92;;;1.60;;
21266;SDS011;10791;53.108;18.326;2023-08-17T20:41:13;2.40;;;1.40;;
21266;SDS011;10791;53.108;18.326;2023-08-17T20:46:17;5.70;;;1.70;;
21266;SDS011;10791;53.108;18.326;2023-08-17T20:51:20;5.30;;;2.08;;
21266;SDS011;10791;53.108;18.326;2023-08-17T20:56:24;5.22;;;1.60;;
21266;SDS011;10791;53.108;18.326;2023-08-17T21:01:28;3.05;;;1.40;;
21266;SDS011;10791;53.108;18.326;2023-08-17T21:06:33;5.43;;;1.83;;
21266;SDS011;10791;53.108;18.326;2023-08-17T21:11:40;3.35;;;1.90;;
21266;SDS011;10791;53.108;18.326;2023-08-17T21:16:43;4.35;;;1.83;;
21266;SDS011;10791;53.108;18.326;2023-08-17T21:21:46;6.32;;;1.83;;
21266;SDS011;10791;53.108;18.326;2023-08-17T21:26:49;10.20;;;1.42;;
21266;SDS011;10791;53.108;18.326;2023-08-17T21:31:52;2.55;;;1.80;;
21266;SDS011;10791;53.108;18.326;2023-08-17T21:36:55;5.50;;;1.52;;
21266;SDS011;10791;53.108;18.326;2023-08-17T21:41:59;4.55;;;1.67;;
21266;SDS011;10791;53.108;18.326;2023-08-17T21:47:02;4.75;;;1.90;;
21266;SDS011;10791;53.108;18.326;2023-08-17T21:52:05;3.30;;;1.90;;
21266;SDS011;10791;53.108;18.326;2023-08-17T21:57:08;3.10;;;1.83;;
21266;SDS011;10791;53.108;18.326;2023-08-17T22:02:11;4.50;;;2.10;;
21266;SDS011;10791;53.108;18.326;2023-08-17T22:07:14;3.67;;;1.75;;
21266;SDS011;10791;53.108;18.326;2023-08-17T22:12:17;4.15;;;1.80;;
21266;SDS011;10791;53.108;18.326;2023-08-17T22:17:20;7.75;;;2.15;;
21266;SDS011;10791;53.108;18.326;2023-08-17T22:22:24;2.83;;;1.80;;
21266;SDS011;10791;53.108;18.326;2023-08-17T22:27:27;8.15;;;2.05;;
21266;SDS011;10791;53.108;18.326;2023-08-17T22:32:30;8.98;;;2.38;;
21266;SDS011;10791;53.108;18.326;2023-08-17T22:37:34;7.90;;;3.15;;
21266;SDS011;10791;53.108;18.326;2023-08-17T22:42:36;5.32;;;2.40;;
21266;SDS011;10791;53.108;18.326;2023-08-17T22:47:40;4.85;;;1.95;;
21266;SDS011;10791;53.108;18.326;2023-08-17T22:52:43;3.83;;;2.00;;
21266;SDS011;10791;53.108;18.326;2023-08-17T22:57:47;3.22;;;2.25;;
21266;SDS011;10791;53.108;18.326;2023-08-17T23:02:49;3.35;;;2.03;;
21266;SDS011;10791;53.108;18.326;2023-08-17T23:07:53;3.88;;;2.15;;
21266;SDS011;10791;53.108;18.326;2023-08-17T23:12:59;9.32;;;2.55;;
21266;SDS011;10791;53.108;18.326;2023-08-17T23:18:02;6.65;;;2.35;;
21266;SDS011;10791;53.108;18.326;2023-08-17T23:23:06;4.95;;;2.08;;
21266;SDS011;10791;53.108;18.326;2023-08-17T23:28:09;9.52;;;2.85;;
21266;SDS011;10791;53.108;18.326;2023-08-17T23:33:12;6.47;;;2.72;;
21266;SDS011;10791;53.108;18.326;2023-08-17T23:38:15;3.72;;;2.30;;
21266;SDS011;10791;53.108;18.326;2023-08-17T23:43:18;4.82;;;2.65;;
21266;SDS011;10791;53.108;18.326;2023-08-17T23:48:21;3.42;;;2.05;;
21266;SDS011;10791;53.108;18.326;2023-08-17T23:53:24;3.58;;;2.08;;
21266;SDS011;10791;53.108;18.326;2023-08-17T23:58:28;7.40;;;2.33;;
